Search for airport 
image banner adimage banner adimage banner ad
image banner ad

CET9 - Jean Marie River

Located in Jean Marie River, Canada

ICAO - CET9, IATA -

Data provided by Airmate  

General information

Coordinates: N61°31'21" W120°37'30"
Elevation is 457 feet MSL.
Magnetic variation is 19.3500° East
View others Airports in Northwest Territories

Operational data

Special qualification required
Current time UTC:
Current local time:
Weather at : CYFS - Fort Simpson ( 42 km )
METAR: CYFS 221500Z 09004KT 050V160 15SM FEW012 SCT180 BKN210 03/M00 A2954 RMK SF1AC2CI2 PRESFR SLP015
TAF: TAF CYFS 221138Z 2212/2224 12005KT P6SM FEW210 BECMG 2216/2218 12010G20KT RMK NXT FCST BY 221800Z
View NOTAMs / SUP AIP / TFR affecting this airport [VIEW]
Communications frequencies: [VIEW]

Runways:

RWY identifierQFULength (ft)Width (ft)SurfaceLDA (ft)
11130°251257GRAVE2512
29310°251257GRAVE2512

Airport contact information

Address: Jean Marie River Canada

Satellite view of CET9